createdAt,value
2019-02-15T00:01:12.077Z,56.77
2019-02-15T00:03:39.843Z,54.10
2019-02-15T00:06:07.717Z,57.93
2019-02-15T00:08:36.404Z,50.07
2019-02-15T00:11:04.266Z,55.13
2019-02-15T00:13:32.260Z,55.97
2019-02-15T00:16:00.186Z,60.23
2019-02-15T00:18:37.588Z,58.67
2019-02-15T00:21:15.631Z,59.17
2019-02-15T00:23:43.598Z,59.87
2019-02-15T00:26:11.439Z,62.57
2019-02-15T00:28:39.218Z,64.03
2019-02-15T00:31:08.168Z,62.33
2019-02-15T00:33:35.969Z,59.87
2019-02-15T00:36:04.023Z,62.73
2019-02-15T00:38:31.782Z,64.23
2019-02-15T00:40:59.719Z,71.30
2019-02-15T00:43:28.030Z,70.23
2019-02-15T00:46:17.802Z,75.10
2019-02-15T00:48:45.618Z,75.17
2019-02-15T00:51:32.011Z,80.37
2019-02-15T00:54:21.751Z,74.73
2019-02-15T00:57:13.409Z,79.50
2019-02-15T01:00:12.401Z,81.50
2019-02-15T01:03:13.972Z,78.73
2019-02-15T01:06:21.080Z,82.57
2019-02-15T01:09:26.380Z,76.30
2019-02-15T01:12:13.576Z,81.20
2019-02-15T01:14:41.506Z,84.33
2019-02-15T01:17:10.060Z,83.17
2019-02-15T01:19:37.880Z,81.77
2019-02-15T01:22:05.586Z,83.10
2019-02-15T01:24:33.663Z,76.90
2019-02-15T01:27:13.591Z,79.97
2019-02-15T01:29:59.291Z,75.73
2019-02-15T01:32:43.140Z,73.90
2019-02-15T01:35:33.427Z,73.33
2019-02-15T01:38:26.153Z,84.83
2019-02-15T01:41:25.342Z,82.57
2019-02-15T01:44:15.859Z,84.10
2019-02-15T01:46:57.566Z,89.13
2019-02-15T01:49:25.862Z,98.57
2019-02-15T01:51:55.088Z,94.03
2019-02-15T01:54:22.799Z,92.73
2019-02-15T01:56:50.785Z,89.23
2019-02-15T01:59:18.648Z,94.13
2019-02-15T02:01:46.431Z,92.17
2019-02-15T02:04:14.434Z,92.77
2019-02-15T02:06:42.422Z,97.67
2019-02-15T02:09:10.401Z,89.03
2019-02-15T02:11:38.456Z,94.30
2019-02-15T02:14:09.513Z,85.63
2019-02-15T02:16:37.413Z,89.93
2019-02-15T02:19:07.449Z,88.53
2019-02-15T02:21:35.093Z,86.53
2019-02-15T02:24:02.873Z,85.57
2019-02-15T02:26:30.795Z,83.13
2019-02-15T02:28:58.634Z,83.23
2019-02-15T02:31:26.518Z,90.60
2019-02-15T02:33:54.259Z,82.40
2019-02-15T02:36:43.765Z,91.27
2019-02-15T02:39:11.519Z,90.57
2019-02-15T02:41:39.249Z,89.13
2019-02-15T02:44:07.146Z,92.17
2019-02-15T02:46:35.257Z,88.30
2019-02-15T02:49:03.141Z,93.30
2019-02-15T02:51:33.337Z,86.87
2019-02-15T02:54:00.996Z,82.23
2019-02-15T02:56:29.285Z,84.67
2019-02-15T02:58:57.035Z,82.97
2019-02-15T03:01:25.775Z,85.30
2019-02-15T03:03:53.690Z,86.40
2019-02-15T03:06:21.816Z,87.67
2019-02-15T03:08:49.711Z,84.77
2019-02-15T03:11:17.674Z,88.33
2019-02-15T03:13:45.586Z,86.77
2019-02-15T03:16:13.665Z,90.47
2019-02-15T03:18:41.396Z,89.97
2019-02-15T03:21:09.242Z,91.13
2019-02-15T03:23:36.940Z,92.57
2019-02-15T03:26:04.800Z,91.83
2019-02-15T03:28:32.759Z,92.47
2019-02-15T03:31:00.641Z,91.30
2019-02-15T03:33:28.566Z,90.50
2019-02-15T03:36:00.963Z,89.00
2019-02-15T03:38:51.469Z,96.03
2019-02-15T03:41:26.381Z,93.80
2019-02-15T03:43:55.405Z,93.90
2019-02-15T03:46:23.540Z,91.17
2019-02-15T03:48:51.363Z,92.43
2019-02-15T03:51:19.291Z,95.13
2019-02-15T03:53:47.509Z,93.33
2019-02-15T03:56:15.536Z,92.83
2019-02-15T03:58:43.728Z,104.17
2019-02-15T04:01:11.478Z,101.00
2019-02-15T04:03:39.271Z,101.13
2019-02-15T04:06:07.079Z,100.53
2019-02-15T04:08:34.836Z,101.30
2019-02-15T04:11:02.735Z,99.10
2019-02-15T04:13:30.687Z,105.83
2019-02-15T04:15:58.557Z,102.97
2019-02-15T04:18:26.449Z,101.00
2019-02-15T04:20:54.297Z,100.70
2019-02-15T04:23:22.363Z,99.47
2019-02-15T04:25:50.311Z,97.60
2019-02-15T04:28:18.234Z,101.20
2019-02-15T04:30:46.117Z,96.50
2019-02-15T04:33:14.038Z,102.13
2019-02-15T04:35:41.909Z,104.27
2019-02-15T04:38:09.787Z,100.67
2019-02-15T04:40:39.418Z,104.90
2019-02-15T04:43:07.279Z,101.53
2019-02-15T04:45:35.119Z,98.23
2019-02-15T04:48:03.035Z,100.50
2019-02-15T04:50:30.907Z,102.33
2019-02-15T04:52:58.914Z,101.57
2019-02-15T04:55:26.699Z,105.43
2019-02-15T04:57:54.437Z,104.77
2019-02-15T05:00:22.547Z,100.50
2019-02-15T05:02:50.321Z,106.20
2019-02-15T05:05:18.248Z,100.13
2019-02-15T05:07:46.020Z,104.13
2019-02-15T05:10:14.094Z,98.90
2019-02-15T05:12:41.894Z,99.27
2019-02-15T05:15:12.163Z,114.40
2019-02-15T05:17:40.040Z,101.27
2019-02-15T05:20:09.473Z,102.67
2019-02-15T05:22:37.274Z,94.27
2019-02-15T05:25:05.281Z,98.70
2019-02-15T05:27:33.185Z,97.03
2019-02-15T05:30:00.923Z,99.87
2019-02-15T05:32:29.196Z,98.63
2019-02-15T05:34:57.185Z,100.40
2019-02-15T05:37:35.460Z,96.70
2019-02-15T05:40:15.738Z,91.00
2019-02-15T05:42:43.434Z,86.83
2019-02-15T05:45:13.655Z,89.50
2019-02-15T05:47:41.774Z,81.97
2019-02-15T05:50:11.823Z,80.97
2019-02-15T05:52:40.895Z,86.60
2019-02-15T05:55:12.481Z,79.57
2019-02-15T05:57:40.749Z,87.57
2019-02-15T06:00:11.553Z,83.77
2019-02-15T06:02:39.347Z,83.13
2019-02-15T06:05:07.793Z,86.20
2019-02-15T06:07:35.695Z,81.87
2019-02-15T06:10:03.832Z,80.17
2019-02-15T06:12:32.224Z,84.33
2019-02-15T06:15:00.009Z,88.50
2019-02-15T06:17:28.058Z,90.63
2019-02-15T06:19:56.118Z,92.60
2019-02-15T06:22:24.101Z,86.97
2019-02-15T06:24:53.494Z,87.07
2019-02-15T06:27:21.915Z,90.73
2019-02-15T06:29:49.737Z,90.50
2019-02-15T06:32:17.530Z,95.63
2019-02-15T06:34:45.358Z,96.93
2019-02-15T06:37:13.133Z,89.70
2019-02-15T06:39:40.892Z,91.37
2019-02-15T06:42:08.680Z,85.23
2019-02-15T06:44:36.436Z,89.67
2019-02-15T06:47:04.182Z,93.53
2019-02-15T06:49:31.862Z,87.07
2019-02-15T06:51:59.778Z,91.37
2019-02-15T06:54:27.389Z,86.23
2019-02-15T06:56:55.145Z,89.10
2019-02-15T06:59:47.905Z,90.37
2019-02-15T07:02:35.129Z,82.80
2019-02-15T07:05:34.512Z,84.97
2019-02-15T07:08:02.235Z,81.37
2019-02-15T07:10:29.946Z,87.97
2019-02-15T07:12:58.073Z,82.77
2019-02-15T07:15:33.395Z,76.17
2019-02-15T07:17:55.628Z,78.50
2019-02-15T07:23:00.689Z,76.97
2019-02-15T07:25:29.267Z,73.23
2019-02-15T07:27:58.327Z,71.80
2019-02-15T07:30:27.742Z,75.50
2019-02-15T07:32:57.618Z,72.50
2019-02-15T07:35:25.724Z,67.77
2019-02-15T07:37:54.153Z,71.90
2019-02-15T07:40:22.548Z,66.10
2019-02-15T07:42:50.622Z,74.90
2019-02-15T07:45:18.540Z,67.43
2019-02-15T07:47:46.828Z,67.50
2019-02-15T07:50:14.831Z,69.50
2019-02-15T07:52:43.348Z,67.80
2019-02-15T07:55:11.214Z,64.33
2019-02-15T07:57:39.404Z,65.67
2019-02-15T08:00:12.096Z,66.27
2019-02-15T08:02:40.761Z,79.83
2019-02-15T08:05:08.505Z,61.57
2019-02-15T08:07:36.597Z,57.93
2019-02-15T08:10:04.453Z,61.17
2019-02-15T08:12:32.396Z,60.83
2019-02-15T08:15:00.360Z,51.33
2019-02-15T08:17:28.353Z,52.27
2019-02-15T08:19:56.319Z,54.07
2019-02-15T08:22:24.006Z,52.57
2019-02-15T08:24:51.912Z,52.50
2019-02-15T08:27:20.566Z,55.17
2019-02-15T08:29:48.505Z,49.50
2019-02-15T08:32:16.289Z,50.93
2019-02-15T08:34:45.361Z,46.63
2019-02-15T08:37:13.902Z,53.53
2019-02-15T08:39:41.821Z,55.97
2019-02-15T08:42:09.967Z,53.80
2019-02-15T08:44:37.710Z,50.77
2019-02-15T08:47:05.718Z,50.97
2019-02-15T08:49:34.277Z,48.20
2019-02-15T08:52:02.186Z,50.87
2019-02-15T08:54:30.152Z,50.03
2019-02-15T08:56:58.221Z,46.27
2019-02-15T08:59:26.177Z,47.07
2019-02-15T09:02:25.381Z,50.50
2019-02-15T09:04:53.588Z,48.93
2019-02-15T09:07:21.440Z,47.73
2019-02-15T09:09:49.253Z,47.80
2019-02-15T09:12:17.592Z,47.17
2019-02-15T09:14:45.533Z,45.13
2019-02-15T09:17:13.844Z,43.67
2019-02-15T09:19:41.612Z,48.30
2019-02-15T09:22:09.494Z,50.23
2019-02-15T09:24:37.346Z,48.53
2019-02-15T09:27:20.330Z,44.00
2019-02-15T09:29:48.331Z,40.80
2019-02-15T09:32:16.056Z,44.00
2019-02-15T09:34:45.312Z,41.17
2019-02-15T09:37:13.286Z,40.93
2019-02-15T09:39:41.049Z,42.23
2019-02-15T09:42:09.024Z,46.20
2019-02-15T09:44:37.148Z,42.33
2019-02-15T09:47:05.433Z,40.23
2019-02-15T09:49:33.828Z,42.07
2019-02-15T09:52:01.401Z,36.33
2019-02-15T09:54:35.464Z,38.20
2019-02-15T09:57:03.933Z,42.83
2019-02-15T09:59:32.350Z,39.77
2019-02-15T10:02:00.071Z,38.00
2019-02-15T10:04:28.068Z,43.37
2019-02-15T10:07:02.098Z,42.30
2019-02-15T10:09:30.073Z,38.00
2019-02-15T10:11:58.014Z,32.30
2019-02-15T10:14:25.688Z,39.97
2019-02-15T10:16:54.177Z,38.07
2019-02-15T10:19:23.805Z,36.03
2019-02-15T10:21:51.537Z,39.70
2019-02-15T10:24:19.488Z,40.30
2019-02-15T10:26:51.182Z,36.10
2019-02-15T10:29:20.776Z,34.70
2019-02-15T10:31:48.534Z,39.10
2019-02-15T10:34:16.330Z,39.53
2019-02-15T10:36:44.216Z,34.40
2019-02-15T10:39:13.670Z,38.10
2019-02-15T10:41:41.997Z,38.57
2019-02-15T10:44:12.670Z,40.60
2019-02-15T10:46:40.448Z,36.53
2019-02-15T10:49:08.739Z,38.47
2019-02-15T10:51:36.806Z,46.33
2019-02-15T10:54:04.570Z,41.67
2019-02-15T10:56:32.418Z,43.73
2019-02-15T10:59:02.053Z,43.07
2019-02-15T11:01:29.900Z,45.47
2019-02-15T11:03:58.069Z,48.27
2019-02-15T11:06:26.050Z,47.57
2019-02-15T11:08:53.989Z,43.53
2019-02-15T11:11:23.257Z,48.53
2019-02-15T11:13:50.904Z,45.27
2019-02-15T11:16:18.601Z,50.13
2019-02-15T11:18:46.286Z,51.27
2019-02-15T11:21:13.975Z,51.53
2019-02-15T11:23:41.551Z,49.73
2019-02-15T11:26:09.581Z,54.57
2019-02-15T11:28:37.498Z,52.27
2019-02-15T11:31:05.222Z,53.87
2019-02-15T11:33:32.957Z,52.73
2019-02-15T11:36:00.686Z,60.37
2019-02-15T11:38:28.318Z,61.77
2019-02-15T11:40:56.088Z,53.87
2019-02-15T11:43:25.171Z,56.93
2019-02-15T11:45:53.098Z,51.20
2019-02-15T11:48:20.911Z,51.73
2019-02-15T11:50:48.765Z,55.30
2019-02-15T11:53:16.628Z,57.97
2019-02-15T11:55:44.390Z,57.53
2019-02-15T11:58:13.399Z,53.77
2019-02-15T12:00:41.136Z,59.60
2019-02-15T12:03:08.933Z,61.07
2019-02-15T12:05:36.755Z,58.97
2019-02-15T12:08:04.756Z,58.10
2019-02-15T12:10:32.589Z,63.03
2019-02-15T12:13:54.150Z,62.65
2019-02-15T12:21:19.064Z,60.87
2019-02-15T12:23:50.186Z,56.17
2019-02-15T12:26:35.280Z,55.87
2019-02-15T12:29:03.115Z,64.33
2019-02-15T12:31:30.739Z,61.03
2019-02-15T12:33:58.360Z,62.00
2019-02-15T12:36:26.155Z,61.33
2019-02-15T12:38:53.912Z,64.00
2019-02-15T12:41:21.548Z,62.27
2019-02-15T12:43:49.321Z,66.57
2019-02-15T12:46:17.020Z,63.60
2019-02-15T12:48:44.755Z,64.77
2019-02-15T12:51:12.572Z,65.73
2019-02-15T12:53:40.492Z,67.67
2019-02-15T12:56:08.299Z,66.70
2019-02-15T12:58:38.950Z,69.43
2019-02-15T13:01:17.958Z,71.37
2019-02-15T13:03:46.392Z,74.50
2019-02-15T13:06:15.376Z,69.27
2019-02-15T13:08:43.740Z,66.17
2019-02-15T13:11:16.192Z,67.63
2019-02-15T13:13:46.526Z,68.10
2019-02-15T13:16:31.085Z,65.67
2019-02-15T13:19:08.204Z,69.53
2019-02-15T13:21:39.469Z,73.83
2019-02-15T13:24:07.384Z,70.20
2019-02-15T13:26:35.293Z,68.77
2019-02-15T13:29:02.970Z,69.83
2019-02-15T13:31:30.752Z,68.47
2019-02-15T13:33:58.497Z,65.13
2019-02-15T13:36:26.346Z,67.93
2019-02-15T13:38:54.055Z,74.70
2019-02-15T13:41:21.793Z,67.87
2019-02-15T13:43:49.591Z,70.63
2019-02-15T13:46:17.308Z,64.97
2019-02-15T13:48:45.046Z,65.27
2019-02-15T13:51:12.610Z,64.10
2019-02-15T13:53:40.245Z,65.80
2019-02-15T13:56:07.916Z,65.13
2019-02-15T13:58:35.605Z,67.80
2019-02-15T14:01:03.258Z,68.43
2019-02-15T14:03:32.747Z,68.47
2019-02-15T14:06:00.437Z,67.80
2019-02-15T14:08:28.081Z,69.03
2019-02-15T14:10:55.870Z,65.03
2019-02-15T14:13:23.534Z,67.47
2019-02-15T14:15:51.157Z,74.63
2019-02-15T14:18:18.850Z,74.97
2019-02-15T14:20:46.496Z,68.80
2019-02-15T14:23:14.273Z,69.53
2019-02-15T14:25:41.920Z,70.77
2019-02-15T14:28:09.668Z,73.10
2019-02-15T14:30:37.290Z,73.00
2019-02-15T14:33:04.990Z,76.43
2019-02-15T14:35:32.645Z,71.93
2019-02-15T14:38:00.353Z,75.13
2019-02-15T14:40:28.122Z,73.57
2019-02-15T14:42:55.869Z,77.93
2019-02-15T14:45:23.497Z,76.33
2019-02-15T14:47:54.866Z,72.37
2019-02-15T14:50:20.684Z,90.70
2019-02-15T14:52:48.382Z,78.70
2019-02-15T14:55:16.152Z,83.43
2019-02-15T14:57:43.940Z,83.33
2019-02-15T15:00:11.775Z,81.67
2019-02-15T15:02:39.672Z,83.70
2019-02-15T15:05:07.739Z,84.27
2019-02-15T15:07:35.558Z,83.30
2019-02-15T15:10:03.850Z,85.17
2019-02-15T15:12:32.075Z,90.53
2019-02-15T15:14:59.806Z,95.30
2019-02-15T15:17:28.001Z,83.40
2019-02-15T15:19:55.638Z,92.63
2019-02-15T15:22:23.679Z,93.03
2019-02-15T15:24:54.230Z,94.67
2019-02-15T15:27:23.038Z,90.17
2019-02-15T15:29:51.307Z,100.93
2019-02-15T15:32:21.833Z,92.87
2019-02-15T15:34:51.136Z,94.63
2019-02-15T15:37:18.985Z,97.87
2019-02-15T15:39:47.184Z,100.27
2019-02-15T15:42:15.006Z,92.93
2019-02-15T15:44:42.894Z,98.13
2019-02-15T15:47:10.895Z,103.33
2019-02-15T15:49:38.813Z,93.90
2019-02-15T15:52:07.187Z,94.43
2019-02-15T15:54:35.094Z,100.23
2019-02-15T15:57:05.328Z,101.13
2019-02-15T15:59:33.624Z,103.73
2019-02-15T16:02:02.720Z,110.03
2019-02-15T16:04:30.980Z,105.20
2019-02-15T16:06:59.303Z,107.03
2019-02-15T16:09:36.027Z,107.70
2019-02-15T16:12:04.048Z,109.17
2019-02-15T16:14:31.940Z,103.97
2019-02-15T16:17:05.178Z,105.03
2019-02-15T16:19:40.533Z,98.73
2019-02-15T16:22:06.342Z,108.23
2019-02-15T16:27:10.774Z,110.70
2019-02-15T16:29:39.023Z,106.13
2019-02-15T16:32:19.333Z,105.90
2019-02-15T16:34:50.073Z,109.00
2019-02-15T16:37:18.422Z,113.13
2019-02-15T16:39:46.908Z,107.43
2019-02-15T16:42:17.870Z,112.20
2019-02-15T16:44:45.738Z,107.13
2019-02-15T16:47:15.646Z,116.40
2019-02-15T16:49:48.260Z,124.90
2019-02-15T16:52:21.366Z,126.57
2019-02-15T16:54:49.609Z,122.47
2019-02-15T16:57:21.837Z,121.30
2019-02-15T16:59:53.818Z,118.93
2019-02-15T17:02:24.086Z,133.27
2019-02-15T17:04:53.360Z,132.57
2019-02-15T17:07:21.593Z,136.07
2019-02-15T17:09:49.536Z,124.93
2019-02-15T17:12:18.172Z,138.87
2019-02-15T17:14:48.437Z,139.03
2019-02-15T17:17:16.733Z,141.80
2019-02-15T17:19:48.380Z,131.93
2019-02-15T17:22:16.995Z,125.27
2019-02-15T17:24:47.081Z,126.93
2019-02-15T17:27:15.268Z,120.33
2019-02-15T17:29:43.531Z,104.20
2019-02-15T17:32:12.137Z,100.27
2019-02-15T17:34:46.667Z,97.40
2019-02-15T17:37:15.956Z,95.17
2019-02-15T17:39:49.765Z,90.53
2019-02-15T17:42:17.914Z,90.43
2019-02-15T17:44:47.176Z,100.77
2019-02-15T17:47:15.070Z,86.87
2019-02-15T17:49:42.978Z,99.20
2019-02-15T17:52:11.118Z,89.83
2019-02-15T17:54:39.320Z,94.90
2019-02-15T17:57:07.502Z,96.07
2019-02-15T17:59:35.520Z,104.37
2019-02-15T18:02:04.009Z,95.83
2019-02-15T18:04:38.047Z,96.93
2019-02-15T18:07:06.164Z,101.13
2019-02-15T18:09:34.116Z,97.03
2019-02-15T18:12:05.276Z,96.63
2019-02-15T18:14:33.015Z,102.90
2019-02-15T18:17:01.465Z,102.80
2019-02-15T18:19:29.146Z,95.13
2019-02-15T18:21:57.621Z,99.90
2019-02-15T18:24:26.085Z,86.17
2019-02-15T18:26:53.846Z,95.70
2019-02-15T18:29:21.739Z,93.83
2019-02-15T18:31:49.627Z,98.87
2019-02-15T18:34:17.849Z,105.17
2019-02-15T18:36:47.712Z,90.60
2019-02-15T18:39:16.921Z,101.57
2019-02-15T18:41:45.624Z,97.90
2019-02-15T18:44:13.738Z,100.27
2019-02-15T18:46:41.420Z,99.67
2019-02-15T18:49:18.974Z,103.87
2019-02-15T18:51:40.679Z,98.67
2019-02-15T18:54:08.323Z,110.90
2019-02-15T18:56:36.235Z,100.13
2019-02-15T18:59:04.064Z,99.57
2019-02-15T19:01:32.924Z,105.50
2019-02-15T19:04:01.534Z,99.63
2019-02-15T19:06:41.261Z,99.37
2019-02-15T19:09:09.157Z,105.97
2019-02-15T19:11:37.002Z,103.53
2019-02-15T19:14:04.728Z,105.03
2019-02-15T19:16:32.725Z,117.63
2019-02-15T19:19:00.612Z,115.53
2019-02-15T19:21:28.767Z,103.07
2019-02-15T19:23:57.418Z,113.73
2019-02-15T19:26:30.260Z,106.63
2019-02-15T19:28:57.920Z,103.07
2019-02-15T19:31:25.956Z,113.93
2019-02-15T19:33:54.238Z,110.40
2019-02-15T19:36:22.185Z,103.87
2019-02-15T19:38:50.180Z,109.67
2019-02-15T19:41:18.260Z,110.30
2019-02-15T19:43:46.128Z,115.77
2019-02-15T19:46:13.971Z,108.40
2019-02-15T19:48:44.071Z,109.23
2019-02-15T19:51:16.235Z,122.40
2019-02-15T19:53:46.443Z,121.77
2019-02-15T19:56:14.241Z,120.23
2019-02-15T19:58:43.804Z,108.50
2019-02-15T20:01:14.704Z,105.60
2019-02-15T20:03:44.262Z,100.67
2019-02-15T20:06:12.268Z,98.50
2019-02-15T20:08:40.081Z,101.43
2019-02-15T20:11:07.955Z,101.57
2019-02-15T20:13:41.676Z,111.37
2019-02-15T20:16:39.532Z,113.37
2019-02-15T20:19:08.084Z,97.03
2019-02-15T20:21:43.720Z,106.40
2019-02-15T20:24:13.172Z,93.53
2019-02-15T20:26:41.566Z,104.60
2019-02-15T20:29:09.512Z,106.70
2019-02-15T20:31:37.385Z,108.80
2019-02-15T20:34:05.174Z,104.87
2019-02-15T20:36:33.513Z,97.70
2019-02-15T20:39:02.555Z,103.90
2019-02-15T20:41:33.647Z,100.37
2019-02-15T20:44:03.689Z,98.97
2019-02-15T20:46:31.534Z,97.40
2019-02-15T20:49:04.763Z,102.73
2019-02-15T20:51:30.567Z,106.27
2019-02-15T20:53:58.306Z,106.20
2019-02-15T20:56:26.232Z,101.53
2019-02-15T20:58:54.290Z,107.43
2019-02-15T21:01:23.181Z,112.27
2019-02-15T21:03:51.020Z,110.73
2019-02-15T21:06:19.155Z,111.60
2019-02-15T21:08:47.109Z,115.77
2019-02-15T21:11:17.413Z,114.87
2019-02-15T21:13:45.185Z,116.40
2019-02-15T21:16:13.072Z,120.90
2019-02-15T21:18:41.198Z,111.53
2019-02-15T21:21:10.159Z,121.00
2019-02-15T21:23:38.049Z,109.97
2019-02-15T21:26:06.328Z,112.57
2019-02-15T21:28:34.616Z,114.47
2019-02-15T21:31:03.940Z,100.00
2019-02-15T21:33:31.953Z,101.50
2019-02-15T21:36:01.218Z,103.13
2019-02-15T21:38:29.020Z,106.07
2019-02-15T21:40:56.937Z,112.70
2019-02-15T21:43:24.793Z,107.37
2019-02-15T21:45:52.553Z,109.87
2019-02-15T21:48:20.693Z,125.33
2019-02-15T21:50:49.735Z,119.20
2019-02-15T21:53:17.717Z,118.40
2019-02-15T21:55:47.784Z,123.60
2019-02-15T21:58:15.669Z,119.43
2019-02-15T22:00:43.922Z,114.27
2019-02-15T22:03:11.845Z,114.47
2019-02-15T22:05:39.628Z,119.97
2019-02-15T22:08:07.451Z,113.40
2019-02-15T22:10:35.298Z,101.47
2019-02-15T22:13:05.002Z,113.70
2019-02-15T22:15:33.279Z,111.30
2019-02-15T22:18:01.046Z,112.67
2019-02-15T22:20:30.264Z,117.57
2019-02-15T22:22:58.304Z,102.33
2019-02-15T22:25:26.897Z,107.67
2019-02-15T22:27:54.599Z,103.43
2019-02-15T22:30:23.399Z,105.83
2019-02-15T22:32:51.584Z,99.63
2019-02-15T22:35:19.407Z,97.63
2019-02-15T22:37:47.341Z,106.03
2019-02-15T22:40:26.036Z,103.67
2019-02-15T22:42:53.826Z,99.73
2019-02-15T22:45:23.664Z,103.90
2019-02-15T22:47:51.509Z,112.13
2019-02-15T22:50:22.198Z,116.97
2019-02-15T22:52:50.329Z,125.00
2019-02-15T22:55:18.101Z,132.60
2019-02-15T22:57:46.057Z,123.33
2019-02-15T23:00:28.305Z,130.83
2019-02-15T23:02:56.377Z,124.73
2019-02-15T23:05:24.261Z,121.90
2019-02-15T23:07:52.175Z,108.53
2019-02-15T23:10:29.155Z,109.73
2019-02-15T23:12:56.905Z,106.67
2019-02-15T23:15:24.723Z,105.90
2019-02-15T23:17:52.548Z,116.27
2019-02-15T23:20:23.579Z,101.67
2019-02-15T23:22:53.566Z,109.60
2019-02-15T23:25:21.469Z,109.27
2019-02-15T23:27:49.339Z,102.50
2019-02-15T23:30:21.865Z,113.73
2019-02-15T23:32:50.694Z,114.63
2019-02-15T23:35:18.626Z,114.67
2019-02-15T23:37:46.477Z,120.93
2019-02-15T23:40:15.349Z,131.53
2019-02-15T23:42:43.232Z,133.30
2019-02-15T23:45:11.148Z,132.37
2019-02-15T23:47:39.030Z,135.27
2019-02-15T23:50:06.955Z,139.47
2019-02-15T23:52:35.664Z,135.03
2019-02-15T23:55:04.205Z,131.17
2019-02-15T23:57:32.682Z,135.57
